Time;durP1;ratioP1;P1;durP2;ratioP2;P2;SDS_P1;SDS_P2;PMS_P1;PMS_P2;Temp;Humidity;BMP_temperature;BMP_pressure;BME280_temperature;BME280_humidity;BME280_pressure;Samples;Min_cycle;Max_cycle;Signal;HPM_P1;HPM_P2
2022/01/23 00:01:08;;;;;;;;;;;;;;;19.97;44.06;102503.00;5037546;28;4163;-70
2022/01/23 00:03:35;;;;;;;;;;;;;;;19.86;44.20;102501.50;5037943;28;4539;-70
2022/01/23 00:06:02;;;;;;;;;;;;;;;19.86;44.29;102504.38;5034614;28;4181;-70
2022/01/23 00:08:28;;;;;;;;;;;;;;;19.82;44.30;102504.81;5033273;28;5278;-69
2022/01/23 00:10:56;;;;;;;;;;;;;;;20.04;44.00;102490.56;5035862;28;4178;-69
2022/01/23 00:13:32;;;;;;;;;;;;;;;19.97;44.11;102509.50;5037710;28;4273;-69
2022/01/23 00:18:43;;;;;;;;;;;;;;;19.78;44.52;102512.38;5036941;28;4279;-69
2022/01/23 00:21:10;;;;;;;;;;;;;;;19.85;44.31;102520.09;5038098;28;4082;-69
2022/01/23 00:31:38;;;;;;;;;;;;;;;19.87;44.34;102500.13;5033217;28;4236;-69
2022/01/23 00:34:06;;;;;;;;;;;;;;;19.80;44.41;102501.03;5005138;28;4222;-69
2022/01/23 00:36:32;;;;;;;;;;;;;;;19.90;44.17;102507.53;5018967;28;4063;-70
2022/01/23 00:38:58;;;;;;;;;;;;;;;19.79;44.52;102511.00;5022831;28;4125;-70
2022/01/23 00:41:25;;;;;;;;;;;;;;;19.79;44.40;102506.03;5034173;28;4986;-69
2022/01/23 00:43:53;;;;;;;;;;;;;;;19.83;44.40;102517.06;5035815;28;4200;-70
2022/01/23 00:49:13;;;;;;;;;;;;;;;19.90;44.17;102527.66;5036171;28;4056;-69
2022/01/23 00:51:37;;;;;;;;;;;;;;;19.83;44.35;102522.81;5033760;28;5568;-69
2022/01/23 00:54:04;;;;;;;;;;;;;;;19.93;44.15;102514.97;5036213;28;4517;-69
2022/01/23 00:56:30;;;;;;;;;;;;;;;19.94;44.17;102509.97;5037242;28;4222;-69
2022/01/23 00:58:56;;;;;;;;;;;;;;;19.85;44.32;102511.47;5050941;28;4199;-69
2022/01/23 01:01:24;;;;;;;;;;;;;;;19.86;44.29;102505.13;5031732;28;5316;-69
2022/01/23 01:03:50;;;;;;;;;;;;;;;19.83;44.42;102517.06;5038553;28;4270;-69
2022/01/23 01:06:17;;;;;;;;;;;;;;;19.82;44.48;102506.94;5037282;28;4379;-69
2022/01/23 01:08:44;;;;;;;;;;;;;;;19.90;44.28;102506.78;5018839;28;5275;-69
2022/01/23 01:30:30;;;;;;;;;;;;;;;19.86;44.42;102499.38;5035334;28;4190;-69
2022/01/23 01:35:44;;;;;;;;;;;;;;;19.83;44.44;102505.56;5016723;28;4408;-69
2022/01/23 01:38:11;;;;;;;;;;;;;;;19.81;44.43;102508.28;5017067;28;6308;-69
2022/01/23 01:40:37;;;;;;;;;;;;;;;19.86;44.27;102513.00;5049101;28;4309;-70
2022/01/23 01:43:04;;;;;;;;;;;;;;;19.83;44.37;102519.94;5023706;28;4192;-69
2022/01/23 01:45:32;;;;;;;;;;;;;;;19.86;44.26;102527.38;5032273;28;4203;-68
2022/01/23 01:48:06;;;;;;;;;;;;;;;19.79;44.47;102517.53;5021175;28;4208;-69
2022/01/23 01:50:33;;;;;;;;;;;;;;;19.85;44.41;102520.84;5031702;28;6327;-69
2022/01/23 01:53:03;;;;;;;;;;;;;;;19.92;44.37;102522.06;5024360;28;4221;-69
2022/01/23 01:55:39;;;;;;;;;;;;;;;19.83;44.47;102522.81;5022567;28;4398;-69
2022/01/23 01:58:12;;;;;;;;;;;;;;;19.90;44.19;102515.41;5049978;28;4345;-69
2022/01/23 02:01:11;;;;;;;;;;;;;;;19.82;44.39;102506.94;5019801;28;5152;-69
2022/01/23 02:08:21;;;;;;;;;;;;;;;19.76;44.69;102517.97;5016237;28;4536;-69
2022/01/23 02:09:29;;;;;;;;;;;;;;;19.91;44.27;102514.06;5014801;28;4065;-69
2022/01/23 02:12:20;;;;;;;;;;;;;;;19.78;44.47;102518.88;5050541;28;4247;-69
2022/01/23 02:15:13;;;;;;;;;;;;;;;19.89;44.33;102508.91;5049071;28;4108;-69
2022/01/23 02:51:00;;;;;;;;;;;;;;;20.00;44.33;102507.56;5013213;28;4370;-69
2022/01/23 02:54:02;;;;;;;;;;;;;;;19.75;44.84;102510.72;5030629;28;4257;-69
2022/01/23 02:56:33;;;;;;;;;;;;;;;19.77;44.96;102513.72;5029246;28;4183;-69
2022/01/23 02:59:11;;;;;;;;;;;;;;;19.93;44.58;102514.97;5016258;28;4207;-69
2022/01/23 03:01:48;;;;;;;;;;;;;;;19.81;45.09;102514.03;5019998;28;5170;-70
2022/01/23 03:04:40;;;;;;;;;;;;;;;19.87;44.76;102506.63;5014269;28;4278;-69
2022/01/23 03:10:05;;;;;;;;;;;;;;;19.82;44.82;102512.69;5014205;28;4706;-69
2022/01/23 03:13:25;;;;;;;;;;;;;;;19.88;44.72;102519.66;5012161;28;5213;-69
2022/01/23 03:26:25;;;;;;;;;;;;;;;19.83;44.76;102525.69;5020770;28;4175;-69
2022/01/23 03:29:17;;;;;;;;;;;;;;;19.94;44.46;102519.34;5018849;28;4181;-70
2022/01/23 03:31:59;;;;;;;;;;;;;;;19.84;44.80;102527.22;5019107;28;5274;-70
2022/01/23 03:34:27;;;;;;;;;;;;;;;19.75;45.03;102537.34;5020268;28;4075;-70
2022/01/23 03:36:53;;;;;;;;;;;;;;;19.74;44.94;102538.69;5016042;28;4357;-70
2022/01/23 03:39:20;;;;;;;;;;;;;;;19.86;44.78;102545.38;5047433;28;4516;-70
2022/01/23 03:41:47;;;;;;;;;;;;;;;19.84;44.80;102541.59;5018199;28;5738;-70
2022/01/23 03:44:15;;;;;;;;;;;;;;;19.92;44.65;102536.44;5018267;28;4254;-69
2022/01/23 03:47:14;;;;;;;;;;;;;;;19.84;44.82;102541.59;5013728;28;4135;-69
2022/01/23 03:49:40;;;;;;;;;;;;;;;19.81;44.99;102539.91;5023525;28;4247;-69
2022/01/23 03:52:32;;;;;;;;;;;;;;;19.83;45.05;102540.06;5048179;28;4116;-69
2022/01/23 03:54:59;;;;;;;;;;;;;;;19.94;44.92;102544.47;5016962;28;4210;-69
2022/01/23 03:57:25;;;;;;;;;;;;;;;19.88;45.08;102541.88;5018211;28;4161;-69
2022/01/23 03:59:52;;;;;;;;;;;;;;;19.88;45.18;102544.75;5020652;28;4233;-69
2022/01/23 04:02:18;;;;;;;;;;;;;;;19.91;45.12;102534.94;5016444;28;5288;-69
2022/01/23 04:04:45;;;;;;;;;;;;;;;19.86;45.27;102533.13;5015199;28;4256;-69
2022/01/23 04:07:19;;;;;;;;;;;;;;;19.93;44.98;102526.47;5032144;28;4238;-69
2022/01/23 04:09:46;;;;;;;;;;;;;;;19.77;45.39;102522.34;5016601;28;4346;-69
2022/01/23 04:12:30;;;;;;;;;;;;;;;19.90;45.20;102536.28;5016183;28;4206;-69
2022/01/23 04:15:15;;;;;;;;;;;;;;;19.94;45.11;102539.47;5022350;28;5692;-69
2022/01/23 04:18:37;;;;;;;;;;;;;;;19.88;45.42;102544.75;5031386;28;4229;-69
2022/01/23 04:21:14;;;;;;;;;;;;;;;19.85;45.35;102557.47;5015556;28;5392;-69
2022/01/23 04:32:08;;;;;;;;;;;;;;;19.73;45.81;102559.44;5030767;28;4233;-69
2022/01/23 04:45:33;;;;;;;;;;;;;;;19.90;45.57;102561.41;5014086;28;4050;-69
2022/01/23 05:04:58;;;;;;;;;;;;;;;20.00;45.62;102571.56;5013824;28;4427;-69
2022/01/23 05:07:46;;;;;;;;;;;;;;;19.87;46.03;102580.63;5014922;28;4095;-68
2022/01/23 05:10:31;;;;;;;;;;;;;;;19.99;45.83;102577.91;5016655;28;4240;-69
2022/01/23 05:13:13;;;;;;;;;;;;;;;19.98;45.71;102585.78;5049168;28;6265;-69
2022/01/23 05:15:40;;;;;;;;;;;;;;;19.85;46.05;102586.97;5015539;28;4065;-69
2022/01/23 05:18:06;;;;;;;;;;;;;;;19.83;46.15;102586.06;5015733;28;3995;-69
2022/01/23 05:20:33;;;;;;;;;;;;;;;19.88;46.15;102588.66;5031607;28;4221;-69
2022/01/23 05:23:04;;;;;;;;;;;;;;;19.91;45.94;102580.94;5013172;28;5388;-69
2022/01/23 05:25:34;;;;;;;;;;;;;;;19.97;45.96;102592.88;5015954;28;4228;-69
2022/01/23 05:28:00;;;;;;;;;;;;;;;20.05;45.69;102584.13;5017329;28;5248;-69
2022/01/23 05:30:26;;;;;;;;;;;;;;;19.99;45.83;102587.28;5015293;28;5540;-68
2022/01/23 05:32:55;;;;;;;;;;;;;;;19.92;46.00;102581.69;5015074;28;5251;-68
2022/01/23 05:35:23;;;;;;;;;;;;;;;19.83;46.29;102591.81;5017904;28;4208;-68
2022/01/23 05:37:51;;;;;;;;;;;;;;;19.81;46.18;102589.56;5015146;28;4189;-69
2022/01/23 05:40:23;;;;;;;;;;;;;;;19.86;46.30;102590.63;5017956;28;4488;-68
2022/01/23 05:42:52;;;;;;;;;;;;;;;19.95;46.03;102607.13;5028434;28;5158;-69
2022/01/23 05:45:19;;;;;;;;;;;;;;;19.90;46.18;102599.53;5020285;28;4261;-69
2022/01/23 05:48:05;;;;;;;;;;;;;;;19.90;46.25;102598.78;5016301;28;4168;-69
2022/01/23 05:51:01;;;;;;;;;;;;;;;19.95;46.12;102598.50;5016020;28;4251;-69
2022/01/23 05:53:44;;;;;;;;;;;;;;;19.93;46.18;102597.56;5014908;28;4230;-69
2022/01/23 05:56:30;;;;;;;;;;;;;;;19.87;46.36;102597.88;5015460;28;5310;-69
2022/01/23 05:59:09;;;;;;;;;;;;;;;19.92;46.19;102602.56;5021792;28;4317;-69
2022/01/23 06:01:42;;;;;;;;;;;;;;;19.94;46.18;102599.84;5015409;28;4540;-69
2022/01/23 06:04:13;;;;;;;;;;;;;;;19.92;46.28;102599.69;5018840;28;4178;-69
2022/01/23 06:07:03;;;;;;;;;;;;;;;19.94;46.22;102602.72;5012006;28;4251;-69
2022/01/23 06:09:30;;;;;;;;;;;;;;;19.99;46.27;102609.53;5013745;28;4166;-69
2022/01/23 06:11:57;;;;;;;;;;;;;;;19.87;46.45;102609.38;5014652;28;5260;-69
2022/01/23 06:14:26;;;;;;;;;;;;;;;19.96;46.16;102617.25;5021796;28;4324;-69
2022/01/23 06:16:52;;;;;;;;;;;;;;;19.99;46.24;102616.03;5013827;28;6515;-69
2022/01/23 06:19:39;;;;;;;;;;;;;;;20.00;46.26;102619.69;5021767;28;4181;-69
2022/01/23 06:22:26;;;;;;;;;;;;;;;19.85;46.64;102632.22;5034643;28;5364;-69
2022/01/23 06:25:11;;;;;;;;;;;;;;;19.79;46.74;102635.41;5050356;28;4251;-69
2022/01/23 06:27:58;;;;;;;;;;;;;;;19.92;46.46;102631.31;5036250;28;4185;-69
2022/01/23 06:30:24;;;;;;;;;;;;;;;19.94;46.29;102642.97;5023667;28;4255;-68
2022/01/23 06:32:51;;;;;;;;;;;;;;;19.94;46.56;102637.25;5022443;28;4353;-68
2022/01/23 06:35:17;;;;;;;;;;;;;;;19.94;46.54;102634.38;5036081;28;4132;-69
2022/01/23 06:37:43;;;;;;;;;;;;;;;20.02;46.28;102614.84;5033676;28;4591;-70
2022/01/23 06:40:10;;;;;;;;;;;;;;;19.98;46.32;102625.31;5022247;28;4237;-69
2022/01/23 06:42:55;;;;;;;;;;;;;;;19.97;46.39;102629.50;5034080;28;4246;-69
2022/01/23 06:45:28;;;;;;;;;;;;;;;19.93;46.52;102624.22;5048083;28;5331;-69
2022/01/23 06:47:55;;;;;;;;;;;;;;;19.99;46.26;102632.56;5023929;28;4230;-69
2022/01/23 06:50:22;;;;;;;;;;;;;;;19.93;46.51;102635.72;5048872;28;4217;-69
2022/01/23 06:52:48;;;;;;;;;;;;;;;20.06;46.13;102641.03;5034732;28;5333;-69
2022/01/23 06:55:17;;;;;;;;;;;;;;;20.04;46.34;102643.78;5034017;28;4249;-69
2022/01/23 06:57:46;;;;;;;;;;;;;;;19.92;46.54;102634.19;5014718;28;5449;-69
2022/01/23 07:00:15;;;;;;;;;;;;;;;19.95;46.50;102632.25;5036081;28;4256;-68
2022/01/23 07:03:06;;;;;;;;;;;;;;;19.87;46.75;102643.88;5024586;28;4106;-69
2022/01/23 07:05:44;;;;;;;;;;;;;;;19.91;46.74;102640.56;5023270;28;4732;-69
2022/01/23 07:08:15;;;;;;;;;;;;;;;19.95;46.61;102647.41;5027863;28;4277;-69
2022/01/23 07:10:48;;;;;;;;;;;;;;;19.98;46.53;102640.44;5019615;28;4219;-69
2022/01/23 07:13:25;;;;;;;;;;;;;;;19.85;46.78;102647.34;5035203;28;4338;-68
2022/01/23 07:16:12;;;;;;;;;;;;;;;20.05;46.45;102653.91;5028582;28;4185;-69
2022/01/23 07:18:54;;;;;;;;;;;;;;;19.99;46.34;102662.06;5050746;28;4226;-69
2022/01/23 07:21:23;;;;;;;;;;;;;;;20.07;46.47;102661.94;5033719;28;5422;-69
2022/01/23 07:23:50;;;;;;;;;;;;;;;19.99;46.49;102673.56;5022540;28;5286;-70
2022/01/23 07:26:22;;;;;;;;;;;;;;;20.00;46.53;102680.84;5028946;28;4379;-70
2022/01/23 07:28:54;;;;;;;;;;;;;;;19.85;46.84;102681.84;5018741;28;4038;-70
2022/01/23 07:31:43;;;;;;;;;;;;;;;19.95;46.53;102690.53;5025734;28;4261;-69
2022/01/23 07:34:09;;;;;;;;;;;;;;;19.80;47.02;102696.53;5052455;28;4173;-69
2022/01/23 07:36:36;;;;;;;;;;;;;;;19.78;46.93;102700.00;5036654;28;4299;-70
2022/01/23 07:39:16;;;;;;;;;;;;;;;19.96;46.63;102702.78;5018410;28;4282;-69
2022/01/23 07:41:47;;;;;;;;;;;;;;;19.94;46.75;102694.75;5022694;28;4046;-69
2022/01/23 07:44:21;;;;;;;;;;;;;;;20.07;46.44;102700.09;5017961;28;4137;-69
2022/01/23 07:47:07;;;;;;;;;;;;;;;20.00;46.59;102703.84;5037416;28;4122;-68
2022/01/23 07:49:49;;;;;;;;;;;;;;;19.88;46.92;102697.91;5037493;28;5253;-69
2022/01/23 07:52:23;;;;;;;;;;;;;;;19.90;47.14;102700.19;5025440;28;4072;-69
2022/01/23 07:55:11;;;;;;;;;;;;;;;20.00;46.87;102700.97;5051795;28;5298;-69
2022/01/23 07:58:02;;;;;;;;;;;;;;;19.97;46.92;102707.91;5025695;28;4408;-68
2022/01/23 08:00:48;;;;;;;;;;;;;;;19.93;47.24;102709.72;5025214;28;5357;-68
2022/01/23 08:03:15;;;;;;;;;;;;;;;20.02;46.90;102703.22;5024513;28;4099;-69
2022/01/23 08:06:05;;;;;;;;;;;;;;;19.97;47.03;102705.03;5023311;28;5211;-69
2022/01/23 08:08:37;;;;;;;;;;;;;;;19.92;47.48;102706.09;5035740;28;4292;-68
2022/01/23 08:11:04;;;;;;;;;;;;;;;14.80;53.94;102709.94;5032475;28;4087;-67
2022/01/23 08:13:30;;;;;;;;;;;;;;;12.96;59.77;102715.50;5017234;28;4765;-67
2022/01/23 08:15:57;;;;;;;;;;;;;;;11.65;61.70;102711.94;5036381;28;5189;-67
2022/01/23 08:18:23;;;;;;;;;;;;;;;12.96;59.77;102721.19;5034313;28;4082;-68
2022/01/23 08:20:50;;;;;;;;;;;;;;;15.02;54.11;102708.50;5033604;28;4200;-68
2022/01/23 08:23:21;;;;;;;;;;;;;;;17.53;49.08;102716.63;5035587;28;4136;-68
2022/01/23 08:25:47;;;;;;;;;;;;;;;18.71;46.24;102710.03;5035130;28;5477;-69
2022/01/23 08:28:14;;;;;;;;;;;;;;;18.96;45.61;102715.72;5034703;28;4302;-67
2022/01/23 08:30:41;;;;;;;;;;;;;;;19.08;45.55;102722.47;5035504;28;4204;-68
2022/01/23 08:33:07;;;;;;;;;;;;;;;19.11;45.49;102726.25;5016656;28;5399;-68
2022/01/23 08:35:33;;;;;;;;;;;;;;;19.24;45.32;102718.03;5034726;28;5511;-68
2022/01/23 08:38:00;;;;;;;;;;;;;;;19.04;45.03;102717.13;5031216;28;4235;-64
2022/01/23 08:43:41;;;;;;;;;;;;;;;18.80;46.01;102720.88;5021921;28;4385;-69
2022/01/23 08:46:07;;;;;;;;;;;;;;;19.32;45.20;102723.66;5035769;28;4135;-69
2022/01/23 08:48:34;;;;;;;;;;;;;;;19.48;44.85;102729.94;5035164;28;4124;-69
2022/01/23 08:51:00;;;;;;;;;;;;;;;19.49;44.92;102731.44;5036012;28;3956;-69
2022/01/23 08:53:27;;;;;;;;;;;;;;;19.57;44.93;102732.09;5035765;28;4200;-69
2022/01/23 08:55:53;;;;;;;;;;;;;;;19.73;44.57;102738.41;5033841;28;4134;-69
2022/01/23 08:58:20;;;;;;;;;;;;;;;19.67;44.79;102741.50;5036173;28;4662;-69
2022/01/23 09:00:46;;;;;;;;;;;;;;;19.72;44.79;102745.50;5035909;28;4575;-69
2022/01/23 09:03:12;;;;;;;;;;;;;;;19.61;45.05;102743.94;5037440;28;4112;-69
2022/01/23 09:05:39;;;;;;;;;;;;;;;19.71;45.02;102740.38;5035363;28;4334;-69
2022/01/23 09:08:05;;;;;;;;;;;;;;;19.67;45.07;102735.75;5035347;28;4181;-68
2022/01/23 09:10:40;;;;;;;;;;;;;;;19.67;45.15;102735.00;5037341;28;4152;-69
2022/01/23 09:13:16;;;;;;;;;;;;;;;19.71;45.13;102740.38;5023227;28;4479;-68
2022/01/23 09:15:44;;;;;;;;;;;;;;;19.70;45.20;102741.72;5014136;28;4591;-70
2022/01/23 09:18:10;;;;;;;;;;;;;;;19.91;44.86;102741.97;5016520;28;4238;-69
2022/01/23 09:20:37;;;;;;;;;;;;;;;19.75;45.13;102746.44;5015334;28;4213;-68
2022/01/23 09:23:03;;;;;;;;;;;;;;;19.70;45.27;102750.34;5015308;28;4284;-70
2022/01/23 09:25:29;;;;;;;;;;;;;;;19.64;45.38;102754.22;5013988;28;4198;-69
2022/01/23 09:27:56;;;;;;;;;;;;;;;19.75;45.24;102752.94;5015665;28;4240;-69
2022/01/23 09:30:23;;;;;;;;;;;;;;;19.83;45.15;102758.56;5022811;28;5694;-69
2022/01/23 09:32:49;;;;;;;;;;;;;;;19.75;45.34;102755.81;5016645;28;5508;-68
2022/01/23 09:35:15;;;;;;;;;;;;;;;19.70;45.57;102761.81;5016894;28;4339;-69
2022/01/23 09:37:42;;;;;;;;;;;;;;;19.82;45.36;102762.81;5012209;28;4195;-69
2022/01/23 09:40:09;;;;;;;;;;;;;;;19.71;45.67;102769.13;5015954;28;4250;-69
2022/01/23 09:42:45;;;;;;;;;;;;;;;19.89;45.33;102767.69;5016919;28;4036;-69
2022/01/23 09:45:12;;;;;;;;;;;;;;;19.79;45.13;102769.75;5011393;28;5574;-64
2022/01/23 09:47:38;;;;;;;;;;;;;;;18.12;45.72;102771.81;5020597;28;4260;-68
2022/01/23 09:50:05;;;;;;;;;;;;;;;18.16;47.11;102769.31;5013143;28;4038;-69
2022/01/23 09:52:33;;;;;;;;;;;;;;;18.86;46.84;102769.44;5026519;28;4272;-70
2022/01/23 09:55:06;;;;;;;;;;;;;;;19.43;45.53;102771.22;5018856;28;5205;-72
2022/01/23 09:57:33;;;;;;;;;;;;;;;19.54;45.29;102772.75;5032258;28;4366;-75
2022/01/23 09:59:59;;;;;;;;;;;;;;;19.73;44.80;102764.28;5015922;28;4191;-69
2022/01/23 10:02:26;;;;;;;;;;;;;;;19.75;44.88;102757.94;5036554;28;4259;-69
2022/01/23 10:04:57;;;;;;;;;;;;;;;19.74;44.95;102756.41;5030124;28;5554;-72
2022/01/23 10:07:23;;;;;;;;;;;;;;;19.91;44.71;102764.97;5030472;28;4291;-71
2022/01/23 10:09:56;;;;;;;;;;;;;;;19.81;44.93;102769.91;5033705;28;4188;-71
2022/01/23 10:12:26;;;;;;;;;;;;;;;20.02;44.46;102770.16;5033052;28;4260;-71
2022/01/23 10:14:53;;;;;;;;;;;;;;;19.83;44.80;102770.81;5033581;28;5384;-71
2022/01/23 10:17:19;;;;;;;;;;;;;;;19.89;44.81;102773.44;5031957;28;4152;-70
2022/01/23 10:19:46;;;;;;;;;;;;;;;19.97;44.69;102779.81;5030545;28;4280;-72
2022/01/23 10:22:14;;;;;;;;;;;;;;;19.90;44.89;102779.94;5032624;28;4176;-70
2022/01/23 10:24:41;;;;;;;;;;;;;;;19.94;44.74;102775.25;5014252;28;5505;-71
2022/01/23 10:27:07;;;;;;;;;;;;;;;19.96;44.76;102772.56;5028613;28;4215;-70
2022/01/23 10:29:36;;;;;;;;;;;;;;;20.04;44.64;102773.19;5027342;28;4281;-70
2022/01/23 10:32:03;;;;;;;;;;;;;;;19.89;45.01;102767.69;5020830;28;4325;-71
2022/01/23 10:35:02;;;;;;;;;;;;;;;19.85;45.10;102767.34;5031486;28;4235;-70
2022/01/23 10:37:35;;;;;;;;;;;;;;;19.90;45.01;102757.69;4991546;28;4282;-70
2022/01/23 10:40:10;;;;;;;;;;;;;;;20.06;44.73;102761.06;5034023;28;4148;-69
2022/01/23 10:47:56;;;;;;;;;;;;;;;20.00;44.95;102755.63;5032419;28;4235;-71
2022/01/23 10:50:22;;;;;;;;;;;;;;;19.94;45.19;102754.38;5032418;28;4197;-71
2022/01/23 10:52:51;;;;;;;;;;;;;;;19.96;45.13;102755.28;5029376;28;4343;-69
2022/01/23 10:55:20;;;;;;;;;;;;;;;19.92;45.17;102760.72;5033077;28;5213;-71
2022/01/23 10:57:47;;;;;;;;;;;;;;;19.97;45.33;102756.03;5029492;28;4291;-70
2022/01/23 11:00:25;;;;;;;;;;;;;;;19.87;45.50;102753.13;5030321;28;4205;-72
2022/01/23 11:02:51;;;;;;;;;;;;;;;20.07;45.09;102765.47;5032704;28;4027;-72
2022/01/23 11:05:19;;;;;;;;;;;;;;;20.00;45.22;102752.75;5033957;28;4225;-83
2022/01/23 11:07:46;;;;;;;;;;;;;;;20.07;45.20;102766.22;5029198;28;4199;-72
2022/01/23 11:10:14;;;;;;;;;;;;;;;19.90;45.43;102768.44;5028295;28;4464;-72
2022/01/23 11:17:55;;;;;;;;;;;;;;;20.19;44.77;102760.66;5034063;28;4226;-79
2022/01/23 11:20:40;;;;;;;;;;;;;;;20.04;44.98;102764.56;5032919;28;4305;-75
2022/01/23 11:23:10;;;;;;;;;;;;;;;20.01;45.00;102754.25;5035089;28;5365;-80
2022/01/23 11:25:37;;;;;;;;;;;;;;;19.94;45.16;102758.00;5033893;28;4303;-77
2022/01/23 11:28:05;;;;;;;;;;;;;;;19.97;45.26;102762.56;5032213;28;4251;-77
2022/01/23 11:30:35;;;;;;;;;;;;;;;19.98;45.18;102758.34;5036340;28;4241;-76
2022/01/23 11:33:01;;;;;;;;;;;;;;;20.07;45.02;102759.72;5014285;28;4158;-77
2022/01/23 11:35:28;;;;;;;;;;;;;;;20.11;44.94;102756.38;5035422;28;5464;-78
2022/01/23 11:37:54;;;;;;;;;;;;;;;20.14;44.90;102752.34;5034294;28;4371;-78
2022/01/23 11:40:33;;;;;;;;;;;;;;;20.12;45.09;102752.19;5024662;28;5062;-77
2022/01/23 11:53:43;;;;;;;;;;;;;;;20.17;44.86;102762.63;5022905;28;4187;-78
2022/01/23 11:53:54;;;;;;;;;;;;;;;20.18;44.85;102752.63;5049314;28;4516;-77
2022/01/23 11:56:32;;;;;;;;;;;;;;;20.15;44.92;102759.59;5038059;28;4105;-80
2022/01/23 11:59:16;;;;;;;;;;;;;;;20.15;44.84;102759.59;5024323;28;4108;-74
2022/01/23 12:01:44;;;;;;;;;;;;;;;20.16;45.09;102761.09;5036802;28;5270;-77
2022/01/23 12:04:18;;;;;;;;;;;;;;;20.22;44.95;102750.06;5036509;28;4319;-77
2022/01/23 12:06:47;;;;;;;;;;;;;;;20.08;45.14;102761.97;5031727;28;4237;-75
2022/01/23 12:09:13;;;;;;;;;;;;;;;20.07;45.12;102771.97;5025657;28;4339;-76
2022/01/23 12:11:58;;;;;;;;;;;;;;;20.08;45.23;102764.88;5035636;28;4048;-75
2022/01/23 12:17:05;;;;;;;;;;;;;;;19.99;45.45;102773.47;5039179;28;4180;-76
2022/01/23 12:19:32;;;;;;;;;;;;;;;20.14;45.19;102763.84;5036719;28;4410;-74
2022/01/23 12:22:18;;;;;;;;;;;;;;;20.02;45.37;102764.41;5035735;28;4544;-77
2022/01/23 12:24:48;;;;;;;;;;;;;;;19.99;45.46;102765.59;5036573;28;4283;-76
2022/01/23 12:27:18;;;;;;;;;;;;;;;20.16;45.07;102772.59;5036041;28;4343;-76
2022/01/23 12:29:45;;;;;;;;;;;;;;;20.24;44.83;102768.25;5037494;28;5012;-76
2022/01/23 12:32:26;;;;;;;;;;;;;;;20.18;44.93;102764.13;5028676;28;5202;-77
2022/01/23 12:34:53;;;;;;;;;;;;;;;20.20;45.13;102759.31;5037567;28;5477;-74
2022/01/23 12:37:20;;;;;;;;;;;;;;;20.16;45.19;102761.88;5034919;28;4283;-74
2022/01/23 12:40:06;;;;;;;;;;;;;;;20.17;45.06;102763.38;5037311;28;4335;-72
2022/01/23 12:42:51;;;;;;;;;;;;;;;20.23;44.96;102755.22;5034847;28;5601;-75
2022/01/23 12:45:37;;;;;;;;;;;;;;;20.18;45.10;102758.38;5036939;28;5215;-74
2022/01/23 12:48:23;;;;;;;;;;;;;;;20.16;45.14;102752.47;5020973;28;4400;-73
2022/01/23 12:50:49;;;;;;;;;;;;;;;20.13;45.15;102756.56;5037175;28;5212;-73
2022/01/23 12:53:15;;;;;;;;;;;;;;;20.16;45.12;102763.97;5037774;28;4205;-74
2022/01/23 12:56:00;;;;;;;;;;;;;;;20.16;45.16;102755.34;5022548;28;4236;-75
2022/01/23 12:58:27;;;;;;;;;;;;;;;20.19;45.13;102757.03;5033614;28;4213;-79
2022/01/23 13:00:53;;;;;;;;;;;;;;;20.14;45.17;102752.34;5035046;28;5241;-80
2022/01/23 13:03:24;;;;;;;;;;;;;;;20.17;45.12;102756.88;5037347;28;4189;-80
2022/01/23 13:05:55;;;;;;;;;;;;;;;20.25;44.95;102751.75;5038204;28;4631;-80
2022/01/23 13:08:29;;;;;;;;;;;;;;;20.16;45.08;102749.59;5031797;28;4206;-76
2022/01/23 13:11:21;;;;;;;;;;;;;;;20.16;45.12;102740.97;5034700;28;4196;-75
2022/01/23 13:13:52;;;;;;;;;;;;;;;20.08;45.29;102744.72;5034284;28;5370;-69
2022/01/23 13:16:34;;;;;;;;;;;;;;;20.14;45.11;102758.09;5031932;28;4383;-75
2022/01/23 13:28:25;;;;;;;;;;;;;;;20.18;45.21;102752.63;5032493;28;4187;-76
2022/01/23 13:30:31;;;;;;;;;;;;;;;20.12;45.33;102749.28;5035479;28;4095;-75
2022/01/23 13:33:00;;;;;;;;;;;;;;;20.07;45.58;102748.22;5033771;28;5385;-78
2022/01/23 13:35:30;;;;;;;;;;;;;;;20.20;45.32;102749.91;5033445;28;5495;-76
2022/01/23 13:37:59;;;;;;;;;;;;;;;20.23;45.30;102760.22;5035673;28;4063;-77
2022/01/23 13:40:34;;;;;;;;;;;;;;;20.14;45.51;102752.34;5036351;28;5266;-74
2022/01/23 13:59:22;;;;;;;;;;;;;;;20.21;45.48;102769.44;5034040;28;4456;-77
2022/01/23 14:04:30;;;;;;;;;;;;;;;20.15;45.50;102771.09;5036683;28;4174;-74
2022/01/23 14:06:56;;;;;;;;;;;;;;;20.06;45.79;102770.44;5025722;28;4197;-77
2022/01/23 14:09:24;;;;;;;;;;;;;;;20.04;45.77;102773.19;5024391;28;4311;-71
2022/01/23 14:11:50;;;;;;;;;;;;;;;20.04;45.87;102784.69;5026934;28;5449;-68
2022/01/23 14:14:17;;;;;;;;;;;;;;;19.74;46.89;102779.41;5030323;28;4239;-63
2022/01/23 14:16:44;;;;;;;;;;;;;;;19.88;46.75;102771.91;5032580;28;4255;-64
2022/01/23 14:19:13;;;;;;;;;;;;;;;20.04;46.99;102772.41;5029597;28;4063;-65
2022/01/23 14:21:44;;;;;;;;;;;;;;;20.12;47.50;102778.06;5032054;28;4208;-64
2022/01/23 14:24:10;;;;;;;;;;;;;;;20.21;47.51;102783.09;5029308;28;5480;-64
2022/01/23 14:26:37;;;;;;;;;;;;;;;20.24;47.45;102779.00;5030621;28;4247;-61
2022/01/23 14:29:04;;;;;;;;;;;;;;;20.23;48.19;102769.63;5029442;28;6391;-67
2022/01/23 14:31:36;;;;;;;;;;;;;;;20.19;48.19;102783.69;5033751;28;4318;-67
2022/01/23 14:34:05;;;;;;;;;;;;;;;20.35;47.77;102786.31;5032150;28;5590;-66
2022/01/23 14:36:33;;;;;;;;;;;;;;;20.34;47.65;102788.44;5031280;28;4643;-68
2022/01/23 14:38:59;;;;;;;;;;;;;;;20.20;48.09;102785.22;5031036;28;4256;-71
2022/01/23 14:41:27;;;;;;;;;;;;;;;20.30;48.05;102788.09;5032463;28;4248;-68
2022/01/23 14:43:53;;;;;;;;;;;;;;;20.20;48.28;102778.66;5031655;28;4112;-69
2022/01/23 14:46:20;;;;;;;;;;;;;;;20.30;48.08;102788.84;5029226;28;4426;-68
2022/01/23 14:48:49;;;;;;;;;;;;;;;20.24;48.39;102784.75;5027860;28;5267;-70
2022/01/23 14:51:19;;;;;;;;;;;;;;;20.38;48.10;102780.09;5029096;28;5543;-70
2022/01/23 14:53:45;;;;;;;;;;;;;;;20.40;48.11;102774.50;5025287;28;5398;-70
2022/01/23 14:56:13;;;;;;;;;;;;;;;20.19;48.58;102774.28;5026696;28;4295;-70
2022/01/23 14:58:40;;;;;;;;;;;;;;;20.27;48.18;102772.03;5025783;28;4101;-68
2022/01/23 15:01:08;;;;;;;;;;;;;;;20.31;48.33;102766.59;5024035;28;4931;-68
2022/01/23 15:03:36;;;;;;;;;;;;;;;20.34;48.04;102771.16;5021683;28;4112;-68
2022/01/23 15:06:22;;;;;;;;;;;;;;;20.12;48.96;102781.69;5020869;28;4621;-68
2022/01/23 15:08:48;;;;;;;;;;;;;;;20.25;48.64;102774.78;5025217;28;5488;-68
2022/01/23 15:11:15;;;;;;;;;;;;;;;20.18;48.76;102781.38;5029475;28;4200;-68
2022/01/23 15:13:41;;;;;;;;;;;;;;;20.19;48.88;102777.16;5028380;28;4421;-68
2022/01/23 15:16:07;;;;;;;;;;;;;;;20.30;48.46;102779.47;5024047;28;3941;-68
2022/01/23 15:18:34;;;;;;;;;;;;;;;20.18;48.66;102782.16;5029067;28;5267;-69
2022/01/23 15:21:00;;;;;;;;;;;;;;;20.14;48.86;102781.09;5027643;28;4190;-69
2022/01/23 15:23:27;;;;;;;;;;;;;;;20.18;48.89;102790.81;5030794;28;4562;-69
2022/01/23 15:25:53;;;;;;;;;;;;;;;20.07;49.30;102792.13;5030937;28;4633;-68
2022/01/23 15:28:20;;;;;;;;;;;;;;;20.12;49.19;102801.81;5033222;28;4269;-68
2022/01/23 15:30:49;;;;;;;;;;;;;;;20.16;48.88;102801.38;5030933;28;4155;-71
2022/01/23 15:33:15;;;;;;;;;;;;;;;20.17;48.91;102808.66;5029689;28;4109;-70
2022/01/23 15:35:46;;;;;;;;;;;;;;;20.12;49.24;102812.56;5027235;28;5422;-71
2022/01/23 15:38:14;;;;;;;;;;;;;;;20.18;49.15;102816.69;5031377;28;4169;-71
2022/01/23 15:40:40;;;;;;;;;;;;;;;20.22;48.89;102817.00;5034998;28;5748;-69
2022/01/23 15:43:06;;;;;;;;;;;;;;;20.14;49.32;102822.13;5030734;28;4217;-70
2022/01/23 15:45:33;;;;;;;;;;;;;;;20.27;48.88;102823.81;5029383;28;4043;-69
2022/01/23 15:47:59;;;;;;;;;;;;;;;20.25;48.73;102832.31;5033219;28;4180;-69
2022/01/23 15:50:25;;;;;;;;;;;;;;;20.14;49.16;102827.13;5029383;28;4076;-69
2022/01/23 15:52:52;;;;;;;;;;;;;;;20.27;48.83;102835.31;5029109;28;5335;-70
2022/01/23 15:55:19;;;;;;;;;;;;;;;20.07;49.37;102835.25;5030237;28;4250;-69
2022/01/23 15:57:48;;;;;;;;;;;;;;;20.15;49.20;102840.13;5029958;28;4221;-69
2022/01/23 16:00:15;;;;;;;;;;;;;;;20.16;49.16;102839.53;5026944;28;4059;-70
2022/01/23 16:02:44;;;;;;;;;;;;;;;19.99;49.51;102839.59;5027020;28;5361;-70
2022/01/23 16:05:11;;;;;;;;;;;;;;;20.17;49.20;102848.94;5027348;28;4083;-73